Time;durP1;ratioP1;P1;durP2;ratioP2;P2;SDS_P1;SDS_P2;PMS_P1;PMS_P2;Temp;Humidity;BMP_temperature;BMP_pressure;BME280_temperature;BME280_humidity;BME280_pressure;Samples;Min_cycle;Max_cycle;Signal;HPM_P1;HPM_P2
2022/01/19 00:01:20;;;;;;;11.27;5.10;;;;;;;4.02;40.88;96419.59;5012761;28;20221;-76
2022/01/19 00:03:47;;;;;;;13.60;5.38;;;;;;;3.99;40.41;96410.41;5012841;28;20186;-75
2022/01/19 00:06:15;;;;;;;11.02;4.85;;;;;;;4.25;40.15;96399.59;5012781;28;20221;-73
2022/01/19 00:08:42;;;;;;;10.00;5.05;;;;;;;3.82;41.22;96414.13;5012366;28;20195;-74
2022/01/19 00:11:09;;;;;;;9.15;4.88;;;;;;;3.17;42.03;96426.00;5012373;28;20766;-74
2022/01/19 00:13:36;;;;;;;12.48;5.50;;;;;;;3.27;41.87;96433.53;5012224;28;20225;-75
2022/01/19 00:16:03;;;;;;;14.05;5.45;;;;;;;3.32;42.59;96431.25;5012051;28;20236;-75
2022/01/19 00:18:30;;;;;;;12.43;5.20;;;;;;;3.37;41.64;96436.72;5011865;28;20213;-76
2022/01/19 00:20:57;;;;;;;11.77;5.28;;;;;;;3.30;42.25;96444.38;5012577;28;20256;-74
2022/01/19 00:23:25;;;;;;;12.88;4.93;;;;;;;3.40;41.65;96444.94;5012299;28;20186;-76
2022/01/19 00:25:54;;;;;;;11.18;4.97;;;;;;;2.95;43.05;96453.50;5012594;28;20201;-73
2022/01/19 00:28:22;;;;;;;12.90;4.72;;;;;;;2.81;42.77;96459.38;5010640;28;20197;-75
2022/01/19 00:30:49;;;;;;;16.58;8.13;;;;;;;2.97;42.73;96446.34;5027271;28;20197;-74
2022/01/19 00:33:19;;;;;;;9.63;4.93;;;;;;;3.13;42.02;96434.28;5011605;28;20724;-71
2022/01/19 00:35:49;;;;;;;11.73;4.93;;;;;;;3.77;40.93;96451.94;5012215;28;20205;-75
2022/01/19 00:38:16;;;;;;;13.80;5.38;;;;;;;3.62;41.10;96454.50;5011494;28;20237;-74
2022/01/19 00:40:43;;;;;;;11.48;4.43;;;;;;;2.90;41.88;96452.41;5011927;28;20190;-72
2022/01/19 00:43:13;;;;;;;15.73;4.60;;;;;;;2.43;43.16;96439.50;5011061;28;20205;-76
2022/01/19 00:45:41;;;;;;;10.43;4.30;;;;;;;3.42;41.83;96465.50;5043842;28;20546;-74
2022/01/19 00:48:25;;;;;;;8.90;4.57;;;;;;;2.97;42.47;96453.31;5012003;28;20555;-75
2022/01/19 00:50:52;;;;;;;15.85;5.45;;;;;;;3.00;42.26;96465.91;5011657;28;20208;-74
2022/01/19 00:53:19;;;;;;;10.93;4.80;;;;;;;2.76;42.66;96474.63;5011171;28;20218;-75
2022/01/19 00:55:46;;;;;;;15.35;5.00;;;;;;;2.74;43.40;96489.50;5011723;28;20723;-76
2022/01/19 00:58:13;;;;;;;13.38;4.93;;;;;;;2.77;42.91;96499.50;5010859;28;20202;-76
2022/01/19 01:00:40;;;;;;;13.93;5.55;;;;;;;3.16;42.63;96483.16;5043316;28;20210;-77
2022/01/19 01:03:09;;;;;;;13.40;5.00;;;;;;;3.22;42.32;96480.69;5010908;28;20217;-76
2022/01/19 01:05:38;;;;;;;16.55;5.47;;;;;;;3.55;41.82;96484.69;5011463;28;20217;-76
2022/01/19 01:08:05;;;;;;;16.08;4.90;;;;;;;2.99;42.46;96498.78;5011075;28;20557;-77
2022/01/19 01:10:40;;;;;;;10.02;5.00;;;;;;;3.42;41.88;96494.81;5011657;28;20293;-78
2022/01/19 01:15:25;;;;;;;12.15;5.28;;;;;;;3.12;42.64;96502.63;5011156;28;20263;-79
2022/01/19 01:16:17;;;;;;;11.13;5.15;;;;;;;3.48;41.68;96493.31;5011224;28;20237;-77
2022/01/19 01:18:44;;;;;;;11.75;4.97;;;;;;;3.56;41.31;96477.72;5026238;28;20205;-76
2022/01/19 01:21:11;;;;;;;12.98;5.15;;;;;;;3.18;42.08;96473.41;5026327;28;20194;-77
2022/01/19 01:23:38;;;;;;;12.55;5.10;;;;;;;2.72;43.48;96475.13;5026211;28;20716;-76
2022/01/19 01:26:07;;;;;;;17.02;5.40;;;;;;;3.09;42.33;96476.06;5042677;28;20198;-76
2022/01/19 01:28:34;;;;;;;12.35;5.32;;;;;;;3.27;42.02;96480.16;5026494;28;20206;-75
2022/01/19 01:31:02;;;;;;;13.05;5.50;;;;;;;2.51;43.65;96478.28;5026928;28;20206;-76
2022/01/19 01:33:30;;;;;;;11.48;5.05;;;;;;;3.03;42.75;96468.16;5043129;28;20295;-74
2022/01/19 01:35:57;;;;;;;13.75;5.10;;;;;;;2.67;42.97;96467.06;5010596;28;20202;-75
2022/01/19 01:38:24;;;;;;;14.75;6.18;;;;;;;2.99;42.92;96472.09;5025944;28;20677;-72
2022/01/19 01:41:12;;;;;;;12.82;4.82;;;;;;;2.81;43.10;96469.72;5025040;28;20226;-77
2022/01/19 01:43:44;;;;;;;11.45;5.50;;;;;;;2.76;43.51;96466.84;5026144;28;20229;-77
2022/01/19 01:46:28;;;;;;;11.40;5.25;;;;;;;2.28;43.94;96469.59;5025716;28;20202;-77
2022/01/19 01:48:56;;;;;;;14.50;5.35;;;;;;;2.06;44.86;96432.31;5010769;28;20210;-74
2022/01/19 01:54:09;;;;;;;11.75;4.88;;;;;;;2.21;44.38;96455.72;5025630;28;20668;-75
2022/01/19 01:56:36;;;;;;;12.13;5.25;;;;;;;2.33;43.99;96449.25;5025589;28;20190;-76
2022/01/19 01:59:05;;;;;;;14.45;5.15;;;;;;;2.39;43.96;96437.41;5009174;28;20260;-78
2022/01/19 02:01:51;;;;;;;14.40;5.20;;;;;;;2.19;43.77;96442.16;5025801;28;20732;-74
2022/01/19 02:04:22;;;;;;;13.43;5.32;;;;;;;2.54;44.10;96441.72;5009228;28;20277;-76
2022/01/19 02:09:55;;;;;;;12.73;5.20;;;;;;;1.93;44.62;96426.06;5008490;28;20665;-76
2022/01/19 02:23:54;;;;;;;14.77;4.60;;;;;;;2.32;43.80;96401.06;5007795;28;20356;-76
2022/01/19 02:26:32;;;;;;;10.85;4.78;;;;;;;2.43;43.35;96413.63;5039604;28;20209;-77
2022/01/19 02:29:05;;;;;;;10.00;4.85;;;;;;;2.02;44.38;96409.56;5010161;28;20197;-77
2022/01/19 02:42:40;;;;;;;9.10;4.82;;;;;;;2.28;43.79;96399.78;5024828;28;20210;-74
2022/01/19 02:50:31;;;;;;;14.32;5.13;;;;;;;1.93;44.48;96406.19;5013580;28;20190;-73
2022/01/19 02:52:58;;;;;;;10.73;5.05;;;;;;;2.39;43.82;96396.81;5029799;28;20198;-77
2022/01/19 02:55:25;;;;;;;10.38;5.05;;;;;;;2.17;43.87;96392.41;5028935;28;20229;-77
2022/01/19 02:57:52;;;;;;;8.38;3.72;;;;;;;2.04;43.90;96402.47;5032286;28;20206;-73
2022/01/19 03:08:45;;;;;;;10.65;4.55;;;;;;;2.50;42.42;96396.44;5025626;28;20226;-75
2022/01/19 03:11:17;;;;;;;11.73;5.18;;;;;;;2.07;43.37;96396.94;5008529;28;20209;-71
2022/01/19 03:13:45;;;;;;;9.85;4.75;;;;;;;2.51;43.25;96379.97;5025023;28;21008;-76
2022/01/19 03:16:13;;;;;;;13.02;5.10;;;;;;;1.70;44.71;96401.88;5025133;28;20687;-75
2022/01/19 03:18:40;;;;;;;13.68;5.20;;;;;;;1.65;44.69;96392.03;5026321;28;20735;-75
2022/01/19 03:21:08;;;;;;;11.15;4.60;;;;;;;1.90;44.47;96401.34;5009731;28;20240;-74
2022/01/19 03:23:35;;;;;;;12.75;4.60;;;;;;;1.94;44.46;96396.66;5010770;28;20204;-78
2022/01/19 03:26:06;;;;;;;8.90;4.70;;;;;;;1.95;44.73;96409.41;5009168;28;20181;-76
2022/01/19 03:28:46;;;;;;;10.18;4.38;;;;;;;1.81;44.80;96412.69;5024212;28;20263;-74
2022/01/19 03:31:14;;;;;;;9.85;4.93;;;;;;;2.12;44.00;96417.94;5040741;28;20232;-74
2022/01/19 03:33:41;;;;;;;10.30;4.70;;;;;;;2.43;43.50;96403.28;5024269;28;20684;-74
2022/01/19 03:36:08;;;;;;;7.95;4.22;;;;;;;2.74;42.48;96411.84;5024182;28;20205;-72
2022/01/19 03:38:35;;;;;;;11.85;4.75;;;;;;;2.53;43.17;96409.06;5040888;28;20208;-76
2022/01/19 03:41:03;;;;;;;12.23;4.93;;;;;;;2.51;42.83;96416.19;5007714;28;20190;-74
2022/01/19 03:43:30;;;;;;;28.83;10.38;;;;;;;2.91;42.20;96417.75;5024297;28;20234;-75
2022/01/19 03:46:05;;;;;;;13.27;6.35;;;;;;;3.39;41.46;96398.47;5007888;28;21913;-75
2022/01/19 03:48:43;;;;;;;11.65;5.57;;;;;;;3.05;41.88;96402.28;5024437;28;20210;-75
2022/01/19 03:51:12;;;;;;;11.13;4.63;;;;;;;2.87;42.42;96417.28;5009173;28;20186;-75
2022/01/19 03:53:39;;;;;;;12.18;5.07;;;;;;;3.23;41.34;96408.97;5040818;28;20216;-74
2022/01/19 03:56:06;;;;;;;13.57;5.15;;;;;;;2.85;41.81;96414.06;5008881;28;20724;-74
2022/01/19 03:58:35;;;;;;;15.43;5.25;;;;;;;2.94;41.38;96407.84;5009317;28;20202;-75
2022/01/19 04:01:05;;;;;;;11.60;4.60;;;;;;;2.85;41.73;96414.06;5023898;28;20204;-74
2022/01/19 04:06:27;;;;;;;10.52;5.80;;;;;;;2.71;42.04;96407.03;5036152;28;20212;-74
2022/01/19 04:08:55;;;;;;;13.75;5.32;;;;;;;2.65;42.03;96423.22;5027606;28;20213;-75
2022/01/19 04:11:23;;;;;;;10.68;4.53;;;;;;;2.64;42.17;96419.03;5027737;28;20626;-74
2022/01/19 04:16:32;;;;;;;9.35;5.10;;;;;;;2.89;41.99;96430.88;5012625;28;20615;-73
2022/01/19 04:19:22;;;;;;;11.73;5.28;;;;;;;2.93;42.19;96442.50;5027209;28;20250;-74
2022/01/19 04:21:57;;;;;;;11.35;4.75;;;;;;;3.28;41.23;96443.75;5027002;28;20206;-73
2022/01/19 04:24:25;;;;;;;11.88;5.38;;;;;;;2.93;41.99;96432.16;5012396;28;20256;-73
2022/01/19 04:29:39;;;;;;;12.57;5.32;;;;;;;3.24;40.83;96439.06;5011703;28;20212;-73
2022/01/19 04:32:12;;;;;;;12.32;5.30;;;;;;;2.54;42.21;96446.88;5027097;28;20190;-74
2022/01/19 04:34:41;;;;;;;9.10;5.00;;;;;;;2.31;42.75;96427.91;5010469;28;20645;-75
2022/01/19 05:07:04;;;;;;;13.52;5.97;;;;;;;3.46;40.68;96471.94;5026460;28;20248;-76
2022/01/19 05:14:51;;;;;;;11.45;5.70;;;;;;;2.83;41.99;96483.31;5026026;28;20696;-75
2022/01/19 05:17:18;;;;;;;13.43;5.70;;;;;;;2.90;41.82;96484.25;5026473;28;20230;-76
2022/01/19 05:19:45;;;;;;;11.88;6.07;;;;;;;3.00;41.53;96492.63;5009334;28;20201;-72
2022/01/19 05:22:12;;;;;;;11.27;5.60;;;;;;;2.42;42.42;96484.47;5009429;28;20208;-72
2022/01/19 05:24:46;;;;;;;11.23;5.88;;;;;;;2.57;42.58;96489.75;5042419;28;20267;-70
2022/01/19 05:27:26;;;;;;;12.48;5.78;;;;;;;3.04;41.40;96480.97;5042654;28;20220;-71
2022/01/19 05:29:54;;;;;;;12.73;5.78;;;;;;;2.51;42.16;96462.75;5025706;28;20205;-67
2022/01/19 05:32:22;;;;;;;10.77;5.18;;;;;;;2.55;42.96;96494.28;5010763;28;20213;-69
2022/01/19 05:34:49;;;;;;;11.68;5.90;;;;;;;2.37;42.81;96497.09;5041786;28;20240;-68
2022/01/19 05:37:36;;;;;;;13.73;6.03;;;;;;;3.00;41.91;96500.41;5042369;28;20201;-68
2022/01/19 05:40:38;;;;;;;13.93;6.13;;;;;;;2.51;42.67;96506.75;5007869;28;20235;-64
2022/01/19 05:43:06;;;;;;;13.77;6.57;;;;;;;2.36;43.88;96515.34;5009397;28;20228;-63
2022/01/19 05:45:33;;;;;;;37.05;17.65;;;;;;;2.81;44.26;96516.31;5025635;28;20189;-71
2022/01/19 05:48:07;;;;;;;55.53;31.67;;;;;;;2.89;44.45;96524.06;5023965;28;21048;-70
2022/01/19 05:50:37;;;;;;;16.25;6.38;;;;;;;3.03;42.56;96527.72;5025126;28;20220;-72
2022/01/19 05:53:08;;;;;;;12.30;5.38;;;;;;;2.53;42.92;96525.50;5024961;28;20297;-69
2022/01/19 05:55:35;;;;;;;14.57;6.47;;;;;;;2.62;43.61;96537.44;5026166;28;20713;-73
2022/01/19 05:58:02;;;;;;;13.43;6.80;;;;;;;2.44;43.99;96533.44;5041932;28;20190;-71
2022/01/19 06:00:30;;;;;;;15.82;6.35;;;;;;;2.78;43.08;96547.75;5025893;28;20212;-70
2022/01/19 06:02:58;;;;;;;18.10;6.90;;;;;;;2.74;43.28;96536.09;5010545;28;20206;-68
2022/01/19 06:05:34;;;;;;;14.77;5.82;;;;;;;2.68;43.19;96536.75;5025117;28;20764;-69
2022/01/19 06:10:58;;;;;;;19.95;8.32;;;;;;;2.12;45.31;96544.63;5025628;28;20198;-71
2022/01/19 06:13:26;;;;;;;57.67;26.08;;;;;;;2.51;44.05;96540.38;5008650;28;20279;-71
2022/01/19 06:15:53;;;;;;;33.35;16.70;;;;;;;2.42;44.42;96536.19;5024738;28;20248;-71
2022/01/19 06:18:21;;;;;;;22.13;9.93;;;;;;;2.81;43.88;96537.03;5024455;28;20209;-70
2022/01/19 06:20:49;;;;;;;14.02;7.70;;;;;;;2.56;44.10;96538.09;5041361;28;20202;-68
2022/01/19 06:23:21;;;;;;;16.63;6.78;;;;;;;2.66;44.06;96549.06;5024614;28;20214;-72
2022/01/19 06:26:06;;;;;;;17.25;6.50;;;;;;;2.71;43.83;96559.72;5009682;28;20577;-70
2022/01/19 06:28:35;;;;;;;19.98;7.50;;;;;;;3.00;44.59;96562.53;5007812;28;20301;-71
2022/01/19 06:31:02;;;;;;;15.52;7.13;;;;;;;2.95;43.23;96549.31;5022271;28;20637;-70
2022/01/19 06:33:31;;;;;;;15.82;6.50;;;;;;;3.20;42.83;96547.41;5038885;28;20566;-69
2022/01/19 06:35:57;;;;;;;17.00;7.45;;;;;;;3.10;43.45;96557.16;5022165;28;20240;-69
2022/01/19 06:38:46;;;;;;;18.45;7.97;;;;;;;3.24;43.18;96553.03;5006414;28;20216;-71
2022/01/19 06:41:48;;;;;;;17.08;6.78;;;;;;;2.60;43.76;96560.09;5008590;28;20263;-68
2022/01/19 06:44:17;;;;;;;18.60;7.95;;;;;;;2.87;44.12;96561.44;5023688;28;20233;-70
2022/01/19 06:46:45;;;;;;;15.80;6.07;;;;;;;2.35;44.64;96571.47;5024232;28;20295;-70
2022/01/19 06:49:13;;;;;;;21.90;8.80;;;;;;;2.87;43.83;96566.63;5023167;28;20198;-70
2022/01/19 06:51:40;;;;;;;25.10;9.80;;;;;;;3.08;44.15;96570.25;5024408;28;20703;-69
2022/01/19 06:54:06;;;;;;;21.75;8.63;;;;;;;3.54;43.10;96557.44;5024568;28;20197;-71
2022/01/19 06:56:37;;;;;;;52.67;19.15;;;;;;;3.37;43.59;96551.53;5024770;28;20233;-70
2022/01/19 06:59:23;;;;;;;27.27;10.88;;;;;;;3.63;43.48;96533.06;5009003;28;20205;-71
2022/01/19 07:02:14;;;;;;;20.20;9.13;;;;;;;3.50;43.21;96502.53;5024511;28;20237;-70
2022/01/19 07:04:54;;;;;;;21.50;8.43;;;;;;;4.08;42.04;96544.22;5024080;28;20241;-70
2022/01/19 07:07:40;;;;;;;30.33;11.90;;;;;;;3.61;43.21;96550.56;5009291;28;20232;-70
2022/01/19 07:10:10;;;;;;;34.08;12.35;;;;;;;3.73;43.20;96541.41;5024128;28;20209;-72
2022/01/19 07:12:38;;;;;;;21.15;10.15;;;;;;;3.42;43.33;96533.69;5009426;28;20205;-70
2022/01/19 07:15:07;;;;;;;26.60;10.52;;;;;;;4.28;42.52;96513.41;5023888;28;20284;-70
2022/01/19 07:17:35;;;;;;;21.10;8.90;;;;;;;4.05;42.46;96517.84;5024162;28;20236;-71
2022/01/19 07:20:04;;;;;;;22.52;8.18;;;;;;;4.08;42.66;96514.88;5023811;28;20213;-71
2022/01/19 07:22:31;;;;;;;17.25;9.55;;;;;;;4.03;42.82;96515.38;5024537;28;20344;-69
2022/01/19 07:25:01;;;;;;;16.48;9.40;;;;;;;4.48;42.18;96509.31;5024038;28;20228;-70
2022/01/19 07:27:28;;;;;;;19.73;9.50;;;;;;;4.22;42.49;96519.28;5024244;28;20602;-69
2022/01/19 07:29:55;;;;;;;18.58;8.95;;;;;;;3.94;42.92;96515.66;5023530;28;20202;-71
2022/01/19 07:32:28;;;;;;;23.63;9.65;;;;;;;4.33;42.58;96511.06;5024342;28;20216;-71
2022/01/19 07:34:56;;;;;;;19.60;9.40;;;;;;;4.31;42.82;96513.03;5023836;28;20216;-69
2022/01/19 07:37:23;;;;;;;24.80;8.88;;;;;;;3.74;44.15;96524.88;5024131;28;20209;-68
2022/01/19 07:39:50;;;;;;;21.40;10.27;;;;;;;4.25;43.21;96518.94;5026787;28;20210;-69
2022/01/19 07:42:18;;;;;;;23.85;9.63;;;;;;;4.25;43.26;96529.31;5030427;28;20209;-69
2022/01/19 07:45:06;;;;;;;20.42;8.45;;;;;;;4.37;43.01;96525.31;5027440;28;20707;-70
2022/01/19 07:47:47;;;;;;;16.17;7.75;;;;;;;3.80;43.68;96524.19;5027862;28;20685;-69
2022/01/19 07:50:33;;;;;;;19.10;8.93;;;;;;;4.24;42.93;96526.88;5013040;28;20198;-69
2022/01/19 07:53:32;;;;;;;16.95;7.85;;;;;;;4.02;43.45;96520.75;5010779;28;20241;-69
2022/01/19 07:56:17;;;;;;;16.90;7.50;;;;;;;3.96;43.56;96529.22;5012364;28;20707;-70
2022/01/19 07:59:03;;;;;;;19.90;7.47;;;;;;;4.85;41.45;96532.56;5011889;28;20680;-71
2022/01/19 08:01:47;;;;;;;18.15;7.35;;;;;;;4.83;41.39;96524.19;5028091;28;20232;-69
2022/01/19 08:04:40;;;;;;;15.23;6.85;;;;;;;4.41;41.64;96523.97;5018562;28;20323;-70
2022/01/19 08:07:09;;;;;;;17.50;8.07;;;;;;;4.86;41.05;96528.19;5027255;28;20206;-68
2022/01/19 08:09:36;;;;;;;20.63;8.00;;;;;;;4.79;40.64;96517.72;5010846;28;20594;-70
2022/01/19 08:12:04;;;;;;;20.58;7.70;;;;;;;5.68;39.85;96513.94;5027767;28;20201;-69
2022/01/19 08:14:32;;;;;;;19.02;8.35;;;;;;;5.77;39.78;96518.00;5027506;28;20276;-70
2022/01/19 08:17:00;;;;;;;22.90;9.85;;;;;;;6.04;39.30;96517.28;5011144;28;20241;-69
2022/01/19 08:19:32;;;;;;;14.52;7.13;;;;;;;4.96;40.20;96519.13;5043289;28;20209;-69
2022/01/19 08:21:59;;;;;;;19.98;7.35;;;;;;;5.37;39.55;96510.81;5012273;28;20204;-69
2022/01/19 08:24:26;;;;;;;15.65;7.07;;;;;;;5.26;39.70;96519.06;5027078;28;20201;-71
2022/01/19 08:26:55;;;;;;;16.80;7.18;;;;;;;5.21;39.66;96517.03;5027249;28;20279;-70
2022/01/19 08:29:33;;;;;;;18.48;8.00;;;;;;;5.75;39.44;96517.38;5010435;28;20211;-71
2022/01/19 08:32:05;;;;;;;19.73;7.97;;;;;;;6.66;37.52;96504.34;5027523;28;20209;-68
2022/01/19 08:35:12;;;;;;;16.90;7.32;;;;;;;6.65;37.43;96500.91;5011970;28;20206;-69
2022/01/19 08:37:58;;;;;;;17.20;8.10;;;;;;;6.70;37.17;96485.50;5011539;28;20291;-69
2022/01/19 08:40:29;;;;;;;16.33;7.18;;;;;;;6.36;37.71;96503.75;5026979;28;20213;-68
2022/01/19 08:43:11;;;;;;;24.55;7.82;;;;;;;6.81;36.53;96492.78;5043207;28;20230;-68
2022/01/19 08:45:38;;;;;;;16.58;7.47;;;;;;;7.04;36.62;96498.50;5027343;28;20210;-68
2022/01/19 08:48:06;;;;;;;17.45;6.22;;;;;;;7.28;34.85;96491.97;5026679;28;20201;-69
2022/01/19 08:50:54;;;;;;;17.38;6.38;;;;;;;6.42;36.69;96497.78;5019962;28;20220;-70
2022/01/19 08:53:44;;;;;;;11.65;5.30;;;;;;;5.23;38.05;96498.66;5011384;28;20201;-69
2022/01/19 08:56:31;;;;;;;19.15;6.40;;;;;;;5.73;37.60;96509.00;5026674;28;20307;-69
2022/01/19 08:58:58;;;;;;;13.30;6.00;;;;;;;5.78;37.13;96504.84;5011150;28;20308;-69
2022/01/19 09:01:25;;;;;;;14.48;6.45;;;;;;;5.62;37.91;96514.69;5011778;28;20201;-68
2022/01/19 09:03:52;;;;;;;14.60;6.28;;;;;;;5.91;37.17;96509.41;5012700;28;20236;-68
2022/01/19 09:06:21;;;;;;;17.33;7.03;;;;;;;5.93;36.80;96512.63;5012483;28;20248;-68
2022/01/19 09:08:48;;;;;;;15.43;6.45;;;;;;;6.10;36.46;96508.75;5010365;28;20210;-69
2022/01/19 09:11:15;;;;;;;17.40;6.63;;;;;;;7.54;34.84;96499.06;5011623;28;20221;-70
2022/01/19 09:13:44;;;;;;;16.98;7.40;;;;;;;7.96;34.55;96493.50;5010807;28;20193;-70
2022/01/19 09:16:13;;;;;;;16.88;7.35;;;;;;;7.85;34.30;96489.69;5011235;28;20345;-69
2022/01/19 09:18:40;;;;;;;13.20;6.57;;;;;;;7.21;34.75;96487.75;5011142;28;20660;-68
2022/01/19 09:21:07;;;;;;;12.60;6.72;;;;;;;7.36;34.30;96480.56;5010819;28;20252;-70
2022/01/19 09:23:35;;;;;;;17.35;6.63;;;;;;;7.87;34.17;96458.97;5011205;28;20182;-69
2022/01/19 09:26:03;;;;;;;15.52;6.72;;;;;;;8.13;33.23;96460.78;5011268;28;20267;-68
2022/01/19 09:28:30;;;;;;;25.30;8.02;;;;;;;8.41;32.88;96444.94;5010492;28;20201;-69
2022/01/19 09:31:00;;;;;;;14.13;6.38;;;;;;;8.20;32.57;96453.75;5011293;28;20277;-70
2022/01/19 09:33:30;;;;;;;32.30;13.25;;;;;;;8.53;32.01;96404.09;5010604;28;20204;-68
2022/01/19 09:38:32;;;;;;;15.48;6.85;;;;;;;9.36;31.62;96450.22;5010048;28;20200;-68
2022/01/19 09:40:59;;;;;;;16.15;6.70;;;;;;;9.26;31.00;96434.97;5010615;28;20189;-69
2022/01/19 09:43:26;;;;;;;20.75;7.00;;;;;;;9.03;31.11;96448.53;5010696;28;20721;-68
2022/01/19 09:45:57;;;;;;;11.88;5.97;;;;;;;9.10;30.56;96433.63;5010793;28;20656;-69
2022/01/19 09:48:26;;;;;;;10.63;6.07;;;;;;;9.10;31.63;96425.75;5010347;28;20212;-68
2022/01/19 09:50:54;;;;;;;14.15;6.15;;;;;;;9.84;31.47;96425.91;5010650;28;20202;-68
2022/01/19 09:53:21;;;;;;;13.95;6.95;;;;;;;9.28;30.92;96411.19;5010156;28;20297;-68
2022/01/19 09:55:50;;;;;;;11.07;5.30;;;;;;;8.34;31.64;96437.09;5010478;28;20209;-70
2022/01/19 09:58:18;;;;;;;15.25;6.00;;;;;;;9.43;31.95;96432.66;5010168;28;20201;-68
2022/01/19 10:00:45;;;;;;;18.45;6.55;;;;;;;9.19;30.96;96419.31;5010122;28;20618;-68
2022/01/19 10:03:21;;;;;;;11.15;6.45;;;;;;;9.74;30.88;96428.22;5009992;28;20201;-68
2022/01/19 10:06:07;;;;;;;18.33;6.55;;;;;;;9.19;31.47;96414.09;5010422;28;20193;-69
2022/01/19 10:08:44;;;;;;;14.35;6.97;;;;;;;9.23;30.86;96424.13;5009993;28;20197;-70
2022/01/19 10:19:32;;;;;;;13.52;6.00;;;;;;;9.14;31.09;96411.28;5010306;28;20212;-69
2022/01/19 10:22:17;;;;;;;14.00;7.65;;;;;;;9.30;30.57;96406.56;5010887;28;20669;-69
2022/01/19 10:24:52;;;;;;;12.50;7.00;;;;;;;9.23;30.87;96405.81;5009776;28;20198;-70
2022/01/19 10:27:19;;;;;;;14.40;7.07;;;;;;;9.21;31.33;96401.56;5009988;28;20200;-69
2022/01/19 10:29:49;;;;;;;12.98;5.97;;;;;;;8.93;30.63;96397.72;5009437;28;20205;-68
2022/01/19 10:32:18;;;;;;;14.77;6.03;;;;;;;9.39;30.55;96403.50;5010361;28;20653;-68
2022/01/19 10:34:45;;;;;;;11.85;6.20;;;;;;;9.42;30.53;96407.50;5009092;28;20217;-68
2022/01/19 10:37:12;;;;;;;16.38;6.55;;;;;;;9.72;30.02;96403.25;5009895;28;20213;-68
2022/01/19 10:39:54;;;;;;;12.82;5.60;;;;;;;9.88;29.87;96394.88;5009574;28;20209;-66
2022/01/19 10:42:23;;;;;;;11.50;5.53;;;;;;;9.63;29.90;96379.19;5009787;28;20657;-68
2022/01/19 10:45:05;;;;;;;14.25;6.20;;;;;;;9.49;30.49;96389.94;5009708;28;20233;-68
2022/01/19 10:47:49;;;;;;;15.90;6.47;;;;;;;9.91;30.11;96376.09;5009803;28;20669;-67
2022/01/19 10:50:25;;;;;;;12.50;6.78;;;;;;;10.45;29.22;96367.56;5009534;28;20198;-68
2022/01/19 10:52:54;;;;;;;19.75;6.75;;;;;;;9.66;29.43;96357.00;5009125;28;20632;-68
2022/01/19 10:55:27;;;;;;;17.10;7.70;;;;;;;10.25;29.60;96346.81;5009320;28;20267;-69
2022/01/19 10:57:55;;;;;;;16.67;6.97;;;;;;;9.98;29.89;96343.59;5008676;28;20253;-69
2022/01/19 11:00:26;;;;;;;13.27;7.43;;;;;;;10.22;30.28;96331.50;5009528;28;20202;-68
2022/01/19 11:02:58;;;;;;;17.15;7.40;;;;;;;9.17;30.64;96293.19;5009840;28;20206;-69
2022/01/19 11:05:46;;;;;;;13.07;6.93;;;;;;;9.69;30.71;96333.03;5009104;28;20622;-68
2022/01/19 11:08:14;;;;;;;12.95;7.00;;;;;;;9.55;30.21;96323.66;5008828;28;20621;-68
2022/01/19 11:10:47;;;;;;;20.10;7.78;;;;;;;10.12;30.03;96307.66;5009365;28;20564;-68
2022/01/19 11:13:27;;;;;;;16.50;8.02;;;;;;;9.72;30.66;96314.28;5009363;28;20206;-67
2022/01/19 11:15:56;;;;;;;16.20;7.40;;;;;;;9.27;30.53;96321.47;5009803;28;20234;-67
2022/01/19 11:18:26;;;;;;;16.02;7.85;;;;;;;9.47;31.13;96313.47;5025167;28;20634;-68
2022/01/19 11:20:54;;;;;;;15.20;8.13;;;;;;;9.91;30.65;96302.78;5009504;28;20202;-68
2022/01/19 11:23:27;;;;;;;17.42;8.55;;;;;;;9.91;30.66;96300.19;5008954;28;20194;-67
2022/01/19 11:25:57;;;;;;;14.02;6.78;;;;;;;9.30;30.81;96302.75;5009492;28;20328;-68
2022/01/19 11:28:49;;;;;;;17.13;8.38;;;;;;;9.52;30.76;96314.44;5009135;28;20232;-68
2022/01/19 11:31:21;;;;;;;17.13;7.80;;;;;;;9.51;30.64;96296.31;5006703;28;20615;-67
2022/01/19 11:33:56;;;;;;;16.30;8.75;;;;;;;9.77;31.08;96285.63;5009402;28;20281;-69
2022/01/19 11:36:25;;;;;;;14.85;8.05;;;;;;;10.05;31.40;96299.03;5009152;28;20287;-67
2022/01/19 11:39:07;;;;;;;13.05;7.40;;;;;;;9.79;30.18;96300.09;5009180;28;20298;-68
2022/01/19 11:41:49;;;;;;;14.32;7.43;;;;;;;9.77;30.58;96296.91;5008706;28;20213;-67
2022/01/19 11:44:32;;;;;;;22.30;8.13;;;;;;;9.94;30.59;96286.66;5008995;28;20296;-66
2022/01/19 11:47:16;;;;;;;15.15;7.30;;;;;;;9.51;30.97;96280.63;5009280;28;20273;-68
2022/01/19 11:50:02;;;;;;;17.00;7.80;;;;;;;10.04;30.37;96286.94;5007999;28;20695;-67
2022/01/19 11:52:33;;;;;;;15.68;8.00;;;;;;;10.36;29.50;96283.22;5009185;28;20224;-69
2022/01/19 11:55:19;;;;;;;21.17;8.98;;;;;;;10.99;29.09;96275.69;5008559;28;20288;-68
2022/01/19 11:58:20;;;;;;;19.98;9.32;;;;;;;12.14;28.56;96264.50;5008670;28;20230;-67
2022/01/19 12:00:52;;;;;;;15.30;8.35;;;;;;;12.38;27.73;96255.53;5009062;28;20202;-68
2022/01/19 12:03:22;;;;;;;14.75;8.00;;;;;;;12.92;26.72;96268.09;5008799;28;20205;-67
2022/01/19 12:06:28;;;;;;;14.10;7.20;;;;;;;13.83;26.15;96251.94;5009552;28;20194;-66
2022/01/19 12:08:56;;;;;;;14.65;7.78;;;;;;;13.99;24.87;96251.16;5012474;28;20276;-68
2022/01/19 12:11:24;;;;;;;16.15;7.88;;;;;;;14.17;24.61;96255.31;5011114;28;20689;-67
2022/01/19 12:14:14;;;;;;;29.88;12.15;;;;;;;14.14;24.87;96243.41;5008716;28;20677;-70
2022/01/19 12:19:39;;;;;;;16.97;7.70;;;;;;;15.21;23.45;96231.16;5008601;28;20201;-68
2022/01/19 12:22:16;;;;;;;15.37;7.33;;;;;;;14.51;24.74;96240.19;5008661;28;20472;-68
2022/01/19 12:24:56;;;;;;;17.90;7.60;;;;;;;16.20;22.56;96228.63;5009185;28;20444;-67
2022/01/19 12:27:25;;;;;;;18.73;7.20;;;;;;;15.67;22.96;96223.59;5012276;28;20467;-68
2022/01/19 12:29:58;;;;;;;17.73;7.03;;;;;;;15.48;23.02;96219.75;5011882;28;20449;-68
2022/01/19 12:32:26;;;;;;;17.97;7.33;;;;;;;16.66;22.10;96214.53;5012407;28;20490;-67
2022/01/19 12:34:53;;;;;;;18.30;7.13;;;;;;;16.43;22.82;96203.59;5011812;28;20429;-67
2022/01/19 12:37:35;;;;;;;23.40;7.43;;;;;;;17.68;21.34;96198.44;5012630;28;20492;-67
2022/01/19 12:40:18;;;;;;;15.90;7.73;;;;;;;18.74;20.56;96190.13;5012001;28;20514;-67
2022/01/19 12:42:47;;;;;;;16.63;7.77;;;;;;;18.68;20.67;96186.69;5011725;28;20433;-67
2022/01/19 12:45:20;;;;;;;14.83;7.63;;;;;;;18.82;19.58;96174.38;5012074;28;20432;-67
2022/01/19 12:48:14;;;;;;;14.90;7.37;;;;;;;17.47;21.15;96185.44;5011412;28;20503;-68
2022/01/19 12:50:47;;;;;;;13.90;7.40;;;;;;;17.46;21.35;96183.88;5010615;28;20975;-68
2022/01/19 12:53:22;;;;;;;13.67;8.07;;;;;;;18.14;20.88;96175.25;5011371;28;20448;-68
2022/01/19 12:55:52;;;;;;;16.90;8.70;;;;;;;17.64;21.22;96164.78;5011558;28;21701;-67
2022/01/19 12:58:28;;;;;;;17.40;7.50;;;;;;;18.64;19.89;96153.00;5011405;28;20472;-67
2022/01/19 13:01:05;;;;;;;13.83;7.23;;;;;;;17.19;21.55;96162.94;5011455;28;20445;-67
2022/01/19 13:03:35;;;;;;;16.33;7.83;;;;;;;17.73;20.83;96163.19;5011459;28;20480;-68
2022/01/19 13:06:08;;;;;;;17.67;8.40;;;;;;;17.65;21.02;96161.88;5011508;28;20441;-67
2022/01/19 13:08:56;;;;;;;17.07;7.87;;;;;;;18.32;20.71;96145.44;5011297;28;20449;-67
2022/01/19 13:11:41;;;;;;;15.83;7.07;;;;;;;18.95;19.43;96139.25;5026322;28;20915;-68
2022/01/19 13:14:10;;;;;;;20.13;8.53;;;;;;;18.58;19.40;96136.31;5011010;28;20460;-69
2022/01/19 13:16:41;;;;;;;15.77;7.80;;;;;;;18.26;20.56;96127.97;5010523;28;20499;-68
2022/01/19 13:19:22;;;;;;;13.50;8.10;;;;;;;19.11;20.00;96122.09;5011246;28;20584;-66
2022/01/19 13:21:52;;;;;;;17.37;8.20;;;;;;;18.83;20.15;96125.50;5011098;28;20440;-67
2022/01/19 13:24:26;;;;;;;16.07;8.27;;;;;;;17.94;20.15;96138.19;5010318;28;21029;-67
2022/01/19 13:27:00;;;;;;;20.77;8.57;;;;;;;17.42;21.62;96130.63;5011091;28;20506;-68
2022/01/19 13:29:36;;;;;;;14.77;7.83;;;;;;;17.03;21.03;96138.34;5010621;28;20487;-68
2022/01/19 13:32:09;;;;;;;17.20;8.97;;;;;;;17.37;21.21;96129.84;5010746;28;20530;-67
2022/01/19 13:34:55;;;;;;;16.87;8.93;;;;;;;16.66;22.24;96129.84;5010521;28;20511;-68
2022/01/19 13:37:41;;;;;;;21.37;9.27;;;;;;;17.48;20.65;96129.56;5010981;28;20484;-68
2022/01/19 13:40:11;;;;;;;19.37;8.30;;;;;;;16.58;21.28;96130.38;5010706;28;20498;-68